Terminal Aerodrome Forecast
Issued by NWS Bismarck, ND

Home | Current Version | Previous Version | Text Only | Print | Product List | Glossary Off
Versions: 1 2 3 4 5 6 7 8 9 10 11 12 13 14 15 16 17 18 19 20 21 22 23 24

000
FTUS43 KBIS 251100 RRA
TAFISN
TAF
KISN 251142Z 2512/2612 19004KT P6SM BKN050 OVC070
     FM251400 18006KT 4SM -SN OVC012
     FM251600 21010KT 1SM -SN OVC009
     FM252100 31015G23KT 5SM -SN OVC012
     FM260000 34018G26KT 6SM -SN BLSN OVC010
     FM260600 34010KT P6SM OVC008=

USA.gov is the U.S. government's official web portal to all federal, state and local government web resources and services.